sensor_id;sensor_type;location;lat;lon;timestamp;P1;durP1;ratioP1;P2;durP2;ratioP2
75818;SDS011;64453;51.944;9.796;2023-12-20T00:02:19;1.60;;;1.60;;
75818;SDS011;64453;51.944;9.796;2023-12-20T00:04:46;2.10;;;2.00;;
75818;SDS011;64453;51.944;9.796;2023-12-20T00:07:13;1.80;;;1.80;;
75818;SDS011;64453;51.944;9.796;2023-12-20T00:09:39;1.83;;;1.73;;
75818;SDS011;64453;51.944;9.796;2023-12-20T00:12:08;2.00;;;2.00;;
75818;SDS011;64453;51.944;9.796;2023-12-20T00:14:35;1.93;;;1.83;;
75818;SDS011;64453;51.944;9.796;2023-12-20T00:17:02;2.10;;;2.10;;
75818;SDS011;64453;51.944;9.796;2023-12-20T00:19:31;2.03;;;1.93;;
75818;SDS011;64453;51.944;9.796;2023-12-20T00:21:58;2.47;;;2.40;;
75818;SDS011;64453;51.944;9.796;2023-12-20T00:24:25;2.10;;;2.10;;
75818;SDS011;64453;51.944;9.796;2023-12-20T00:26:52;2.30;;;2.30;;
75818;SDS011;64453;51.944;9.796;2023-12-20T00:29:19;2.30;;;2.30;;
75818;SDS011;64453;51.944;9.796;2023-12-20T00:31:46;2.13;;;2.03;;
75818;SDS011;64453;51.944;9.796;2023-12-20T00:34:13;1.80;;;1.80;;
75818;SDS011;64453;51.944;9.796;2023-12-20T00:36:42;2.50;;;2.40;;
75818;SDS011;64453;51.944;9.796;2023-12-20T00:39:10;1.67;;;1.67;;
75818;SDS011;64453;51.944;9.796;2023-12-20T00:41:36;2.10;;;2.10;;
75818;SDS011;64453;51.944;9.796;2023-12-20T00:44:04;1.73;;;1.67;;
75818;SDS011;64453;51.944;9.796;2023-12-20T00:46:31;2.27;;;2.20;;
75818;SDS011;64453;51.944;9.796;2023-12-20T00:48:57;2.00;;;2.00;;
75818;SDS011;64453;51.944;9.796;2023-12-20T00:51:24;1.80;;;1.80;;
75818;SDS011;64453;51.944;9.796;2023-12-20T00:53:53;2.37;;;2.27;;
75818;SDS011;64453;51.944;9.796;2023-12-20T00:56:20;2.10;;;2.00;;
75818;SDS011;64453;51.944;9.796;2023-12-20T00:58:47;2.33;;;2.27;;
75818;SDS011;64453;51.944;9.796;2023-12-20T01:01:15;2.67;;;2.57;;
75818;SDS011;64453;51.944;9.796;2023-12-20T01:03:42;2.20;;;2.20;;
75818;SDS011;64453;51.944;9.796;2023-12-20T01:06:09;2.67;;;2.57;;
75818;SDS011;64453;51.944;9.796;2023-12-20T01:08:37;2.90;;;2.80;;
75818;SDS011;64453;51.944;9.796;2023-12-20T01:11:05;2.80;;;2.70;;
75818;SDS011;64453;51.944;9.796;2023-12-20T01:13:32;3.00;;;2.90;;
75818;SDS011;64453;51.944;9.796;2023-12-20T01:15:59;3.40;;;3.30;;
75818;SDS011;64453;51.944;9.796;2023-12-20T01:18:26;3.30;;;3.20;;
75818;SDS011;64453;51.944;9.796;2023-12-20T01:20:53;3.17;;;2.97;;
75818;SDS011;64453;51.944;9.796;2023-12-20T01:23:20;3.13;;;2.93;;
75818;SDS011;64453;51.944;9.796;2023-12-20T01:25:47;2.70;;;2.60;;
75818;SDS011;64453;51.944;9.796;2023-12-20T01:28:16;2.90;;;2.80;;
75818;SDS011;64453;51.944;9.796;2023-12-20T01:30:43;3.50;;;3.30;;
75818;SDS011;64453;51.944;9.796;2023-12-20T01:33:10;3.20;;;2.90;;
75818;SDS011;64453;51.944;9.796;2023-12-20T01:35:37;3.50;;;3.30;;
75818;SDS011;64453;51.944;9.796;2023-12-20T01:38:04;3.23;;;3.03;;
75818;SDS011;64453;51.944;9.796;2023-12-20T01:40:32;4.13;;;3.43;;
75818;SDS011;64453;51.944;9.796;2023-12-20T01:42:59;3.33;;;3.17;;
75818;SDS011;64453;51.944;9.796;2023-12-20T01:45:28;3.03;;;2.83;;
75818;SDS011;64453;51.944;9.796;2023-12-20T01:47:55;3.37;;;3.10;;
75818;SDS011;64453;51.944;9.796;2023-12-20T01:50:24;3.20;;;3.00;;
75818;SDS011;64453;51.944;9.796;2023-12-20T01:52:51;3.40;;;3.20;;
75818;SDS011;64453;51.944;9.796;2023-12-20T01:55:21;2.80;;;2.60;;
75818;SDS011;64453;51.944;9.796;2023-12-20T01:57:48;3.00;;;2.90;;
75818;SDS011;64453;51.944;9.796;2023-12-20T02:00:15;3.20;;;3.00;;
75818;SDS011;64453;51.944;9.796;2023-12-20T02:02:47;3.00;;;2.80;;
75818;SDS011;64453;51.944;9.796;2023-12-20T02:05:15;2.53;;;2.37;;
75818;SDS011;64453;51.944;9.796;2023-12-20T02:07:43;4.30;;;2.67;;
75818;SDS011;64453;51.944;9.796;2023-12-20T02:10:09;2.10;;;2.00;;
75818;SDS011;64453;51.944;9.796;2023-12-20T02:12:38;3.83;;;2.47;;
75818;SDS011;64453;51.944;9.796;2023-12-20T02:15:05;2.07;;;1.87;;
75818;SDS011;64453;51.944;9.796;2023-12-20T02:17:33;5.33;;;2.50;;
75818;SDS011;64453;51.944;9.796;2023-12-20T02:20:04;2.60;;;2.40;;
75818;SDS011;64453;51.944;9.796;2023-12-20T02:22:34;3.03;;;1.90;;
75818;SDS011;64453;51.944;9.796;2023-12-20T02:25:02;4.23;;;1.70;;
75818;SDS011;64453;51.944;9.796;2023-12-20T02:27:29;5.50;;;1.97;;
75818;SDS011;64453;51.944;9.796;2023-12-20T02:29:56;3.23;;;1.50;;
75818;SDS011;64453;51.944;9.796;2023-12-20T02:32:24;3.47;;;1.90;;
75818;SDS011;64453;51.944;9.796;2023-12-20T02:34:53;3.47;;;2.67;;
75818;SDS011;64453;51.944;9.796;2023-12-20T02:37:21;1.70;;;1.60;;
75818;SDS011;64453;51.944;9.796;2023-12-20T02:39:50;3.10;;;1.70;;
75818;SDS011;64453;51.944;9.796;2023-12-20T02:42:17;6.00;;;2.27;;
75818;SDS011;64453;51.944;9.796;2023-12-20T02:44:43;2.40;;;1.70;;
75818;SDS011;64453;51.944;9.796;2023-12-20T02:47:10;1.97;;;1.40;;
75818;SDS011;64453;51.944;9.796;2023-12-20T02:49:37;2.30;;;1.40;;
75818;SDS011;64453;51.944;9.796;2023-12-20T02:52:05;2.40;;;1.43;;
75818;SDS011;64453;51.944;9.796;2023-12-20T02:54:32;2.30;;;1.60;;
75818;SDS011;64453;51.944;9.796;2023-12-20T02:57:00;4.07;;;1.40;;
75818;SDS011;64453;51.944;9.796;2023-12-20T02:59:27;2.23;;;1.40;;
75818;SDS011;64453;51.944;9.796;2023-12-20T03:01:54;6.60;;;1.37;;
75818;SDS011;64453;51.944;9.796;2023-12-20T03:04:21;2.50;;;1.20;;
75818;SDS011;64453;51.944;9.796;2023-12-20T03:06:47;2.60;;;1.60;;
75818;SDS011;64453;51.944;9.796;2023-12-20T03:09:15;1.53;;;1.30;;
75818;SDS011;64453;51.944;9.796;2023-12-20T03:11:42;1.43;;;1.30;;
75818;SDS011;64453;51.944;9.796;2023-12-20T03:14:11;1.20;;;1.10;;
75818;SDS011;64453;51.944;9.796;2023-12-20T03:16:38;3.27;;;1.20;;
75818;SDS011;64453;51.944;9.796;2023-12-20T03:19:05;2.00;;;1.20;;
75818;SDS011;64453;51.944;9.796;2023-12-20T03:21:31;4.10;;;1.33;;
75818;SDS011;64453;51.944;9.796;2023-12-20T03:23:58;3.07;;;1.30;;
75818;SDS011;64453;51.944;9.796;2023-12-20T03:26:25;1.50;;;1.13;;
75818;SDS011;64453;51.944;9.796;2023-12-20T03:28:52;1.40;;;1.30;;
75818;SDS011;64453;51.944;9.796;2023-12-20T03:31:20;2.80;;;1.73;;
75818;SDS011;64453;51.944;9.796;2023-12-20T03:33:48;4.43;;;1.33;;
75818;SDS011;64453;51.944;9.796;2023-12-20T03:36:16;1.57;;;1.47;;
75818;SDS011;64453;51.944;9.796;2023-12-20T03:38:43;0.83;;;0.77;;
75818;SDS011;64453;51.944;9.796;2023-12-20T03:41:09;2.50;;;1.17;;
75818;SDS011;64453;51.944;9.796;2023-12-20T03:43:37;6.60;;;1.00;;
75818;SDS011;64453;51.944;9.796;2023-12-20T03:46:03;1.20;;;0.93;;
75818;SDS011;64453;51.944;9.796;2023-12-20T03:48:32;1.23;;;1.13;;
75818;SDS011;64453;51.944;9.796;2023-12-20T03:50:59;4.73;;;1.20;;
75818;SDS011;64453;51.944;9.796;2023-12-20T03:53:26;2.20;;;1.10;;
75818;SDS011;64453;51.944;9.796;2023-12-20T03:55:53;4.13;;;1.10;;
75818;SDS011;64453;51.944;9.796;2023-12-20T03:58:20;1.53;;;0.90;;
75818;SDS011;64453;51.944;9.796;2023-12-20T04:00:47;2.40;;;1.20;;
75818;SDS011;64453;51.944;9.796;2023-12-20T04:03:13;2.57;;;1.23;;
75818;SDS011;64453;51.944;9.796;2023-12-20T04:05:42;3.70;;;1.27;;
75818;SDS011;64453;51.944;9.796;2023-12-20T04:08:09;3.77;;;1.63;;
75818;SDS011;64453;51.944;9.796;2023-12-20T04:10:36;3.47;;;1.30;;
75818;SDS011;64453;51.944;9.796;2023-12-20T04:13:03;4.07;;;1.53;;
75818;SDS011;64453;51.944;9.796;2023-12-20T04:15:30;1.73;;;1.07;;
75818;SDS011;64453;51.944;9.796;2023-12-20T04:17:58;2.37;;;1.17;;
75818;SDS011;64453;51.944;9.796;2023-12-20T04:20:25;2.30;;;1.83;;
75818;SDS011;64453;51.944;9.796;2023-12-20T04:22:53;2.70;;;1.30;;
75818;SDS011;64453;51.944;9.796;2023-12-20T04:25:20;2.73;;;1.20;;
75818;SDS011;64453;51.944;9.796;2023-12-20T04:27:48;3.73;;;3.17;;
75818;SDS011;64453;51.944;9.796;2023-12-20T04:30:15;2.27;;;1.60;;
75818;SDS011;64453;51.944;9.796;2023-12-20T04:32:42;3.87;;;1.57;;
75818;SDS011;64453;51.944;9.796;2023-12-20T04:35:09;3.63;;;1.30;;
75818;SDS011;64453;51.944;9.796;2023-12-20T04:37:36;3.73;;;1.33;;
75818;SDS011;64453;51.944;9.796;2023-12-20T04:40:07;2.37;;;1.30;;
75818;SDS011;64453;51.944;9.796;2023-12-20T04:42:35;1.70;;;1.07;;
75818;SDS011;64453;51.944;9.796;2023-12-20T04:45:03;2.33;;;1.07;;
75818;SDS011;64453;51.944;9.796;2023-12-20T04:47:32;3.03;;;1.20;;
75818;SDS011;64453;51.944;9.796;2023-12-20T04:49:59;4.50;;;1.50;;
75818;SDS011;64453;51.944;9.796;2023-12-20T04:52:27;3.97;;;1.63;;
75818;SDS011;64453;51.944;9.796;2023-12-20T04:54:54;3.37;;;1.20;;
75818;SDS011;64453;51.944;9.796;2023-12-20T04:57:23;3.00;;;1.30;;
75818;SDS011;64453;51.944;9.796;2023-12-20T04:59:49;5.87;;;1.30;;
75818;SDS011;64453;51.944;9.796;2023-12-20T05:02:16;7.40;;;1.87;;
75818;SDS011;64453;51.944;9.796;2023-12-20T05:04:43;4.83;;;1.60;;
75818;SDS011;64453;51.944;9.796;2023-12-20T05:07:11;4.67;;;1.40;;
75818;SDS011;64453;51.944;9.796;2023-12-20T05:09:38;7.03;;;2.27;;
75818;SDS011;64453;51.944;9.796;2023-12-20T05:12:05;4.10;;;2.10;;
75818;SDS011;64453;51.944;9.796;2023-12-20T05:14:34;4.70;;;2.00;;
75818;SDS011;64453;51.944;9.796;2023-12-20T05:17:01;4.17;;;2.00;;
75818;SDS011;64453;51.944;9.796;2023-12-20T05:19:28;3.90;;;2.03;;
75818;SDS011;64453;51.944;9.796;2023-12-20T05:21:55;5.23;;;2.30;;
75818;SDS011;64453;51.944;9.796;2023-12-20T05:24:22;3.53;;;1.63;;
75818;SDS011;64453;51.944;9.796;2023-12-20T05:26:51;5.30;;;2.03;;
75818;SDS011;64453;51.944;9.796;2023-12-20T05:29:19;4.77;;;1.90;;
75818;SDS011;64453;51.944;9.796;2023-12-20T05:31:47;6.17;;;2.27;;
75818;SDS011;64453;51.944;9.796;2023-12-20T05:34:14;5.80;;;2.70;;
75818;SDS011;64453;51.944;9.796;2023-12-20T05:36:41;4.60;;;1.90;;
75818;SDS011;64453;51.944;9.796;2023-12-20T05:39:08;6.83;;;2.50;;
75818;SDS011;64453;51.944;9.796;2023-12-20T05:41:35;5.10;;;2.20;;
75818;SDS011;64453;51.944;9.796;2023-12-20T05:44:02;4.50;;;1.83;;
75818;SDS011;64453;51.944;9.796;2023-12-20T05:46:29;5.17;;;2.40;;
75818;SDS011;64453;51.944;9.796;2023-12-20T05:48:57;6.03;;;2.30;;
75818;SDS011;64453;51.944;9.796;2023-12-20T05:51:24;11.73;;;2.57;;
75818;SDS011;64453;51.944;9.796;2023-12-20T05:53:51;5.83;;;2.87;;
75818;SDS011;64453;51.944;9.796;2023-12-20T05:56:18;8.00;;;2.27;;
75818;SDS011;64453;51.944;9.796;2023-12-20T05:58:45;5.83;;;2.50;;
75818;SDS011;64453;51.944;9.796;2023-12-20T06:01:12;5.53;;;2.53;;
75818;SDS011;64453;51.944;9.796;2023-12-20T06:03:42;8.00;;;2.70;;
75818;SDS011;64453;51.944;9.796;2023-12-20T06:06:12;8.93;;;2.87;;
75818;SDS011;64453;51.944;9.796;2023-12-20T06:08:39;5.40;;;2.20;;
75818;SDS011;64453;51.944;9.796;2023-12-20T06:11:08;7.00;;;2.40;;
75818;SDS011;64453;51.944;9.796;2023-12-20T06:13:35;7.30;;;3.00;;
75818;SDS011;64453;51.944;9.796;2023-12-20T06:16:02;7.30;;;2.60;;
75818;SDS011;64453;51.944;9.796;2023-12-20T06:18:31;8.30;;;2.37;;
75818;SDS011;64453;51.944;9.796;2023-12-20T06:20:58;14.27;;;3.20;;
75818;SDS011;64453;51.944;9.796;2023-12-20T06:23:27;8.53;;;3.33;;
75818;SDS011;64453;51.944;9.796;2023-12-20T06:25:54;7.63;;;2.80;;
75818;SDS011;64453;51.944;9.796;2023-12-20T06:28:21;10.33;;;3.43;;
75818;SDS011;64453;51.944;9.796;2023-12-20T06:30:48;8.93;;;3.07;;
75818;SDS011;64453;51.944;9.796;2023-12-20T06:33:17;6.80;;;2.77;;
75818;SDS011;64453;51.944;9.796;2023-12-20T06:35:46;7.10;;;3.27;;
75818;SDS011;64453;51.944;9.796;2023-12-20T06:38:13;10.97;;;2.40;;
75818;SDS011;64453;51.944;9.796;2023-12-20T06:40:42;10.20;;;2.70;;
75818;SDS011;64453;51.944;9.796;2023-12-20T06:43:09;11.83;;;3.13;;
75818;SDS011;64453;51.944;9.796;2023-12-20T06:45:36;8.30;;;3.20;;
75818;SDS011;64453;51.944;9.796;2023-12-20T06:48:03;9.93;;;2.73;;
75818;SDS011;64453;51.944;9.796;2023-12-20T06:50:31;6.13;;;2.67;;
75818;SDS011;64453;51.944;9.796;2023-12-20T06:52:58;7.97;;;2.27;;
75818;SDS011;64453;51.944;9.796;2023-12-20T06:55:31;8.10;;;2.63;;
75818;SDS011;64453;51.944;9.796;2023-12-20T06:58:00;5.60;;;2.37;;
75818;SDS011;64453;51.944;9.796;2023-12-20T07:00:27;8.40;;;3.27;;
75818;SDS011;64453;51.944;9.796;2023-12-20T07:02:54;4.53;;;2.87;;
75818;SDS011;64453;51.944;9.796;2023-12-20T07:05:21;7.97;;;2.67;;
75818;SDS011;64453;51.944;9.796;2023-12-20T07:07:48;7.83;;;3.87;;
75818;SDS011;64453;51.944;9.796;2023-12-20T07:10:15;8.10;;;2.57;;
75818;SDS011;64453;51.944;9.796;2023-12-20T07:12:42;15.30;;;3.73;;
75818;SDS011;64453;51.944;9.796;2023-12-20T07:15:11;7.13;;;2.70;;
75818;SDS011;64453;51.944;9.796;2023-12-20T07:17:38;6.03;;;2.40;;
75818;SDS011;64453;51.944;9.796;2023-12-20T07:20:06;8.40;;;3.20;;
75818;SDS011;64453;51.944;9.796;2023-12-20T07:22:36;9.90;;;2.90;;
75818;SDS011;64453;51.944;9.796;2023-12-20T07:25:04;8.63;;;2.90;;
75818;SDS011;64453;51.944;9.796;2023-12-20T07:27:32;12.87;;;3.10;;
75818;SDS011;64453;51.944;9.796;2023-12-20T07:29:59;8.93;;;2.63;;
75818;SDS011;64453;51.944;9.796;2023-12-20T07:32:28;8.97;;;3.37;;
75818;SDS011;64453;51.944;9.796;2023-12-20T07:34:55;8.27;;;3.47;;
75818;SDS011;64453;51.944;9.796;2023-12-20T07:37:21;9.60;;;3.30;;
75818;SDS011;64453;51.944;9.796;2023-12-20T07:39:48;12.13;;;3.40;;
75818;SDS011;64453;51.944;9.796;2023-12-20T07:42:15;6.40;;;3.00;;
75818;SDS011;64453;51.944;9.796;2023-12-20T07:44:42;6.93;;;3.00;;
75818;SDS011;64453;51.944;9.796;2023-12-20T07:47:09;4.40;;;2.70;;
75818;SDS011;64453;51.944;9.796;2023-12-20T07:49:39;4.17;;;2.50;;
75818;SDS011;64453;51.944;9.796;2023-12-20T07:52:06;8.13;;;3.03;;
75818;SDS011;64453;51.944;9.796;2023-12-20T07:54:33;8.30;;;2.93;;
75818;SDS011;64453;51.944;9.796;2023-12-20T07:57:00;10.30;;;3.93;;
75818;SDS011;64453;51.944;9.796;2023-12-20T07:59:27;10.13;;;2.97;;
75818;SDS011;64453;51.944;9.796;2023-12-20T08:01:53;12.73;;;3.57;;
75818;SDS011;64453;51.944;9.796;2023-12-20T08:04:20;6.27;;;2.97;;
75818;SDS011;64453;51.944;9.796;2023-12-20T08:06:49;7.30;;;2.67;;
75818;SDS011;64453;51.944;9.796;2023-12-20T08:09:16;5.43;;;2.87;;
75818;SDS011;64453;51.944;9.796;2023-12-20T08:11:44;8.50;;;3.53;;
75818;SDS011;64453;51.944;9.796;2023-12-20T08:14:11;4.87;;;2.63;;
75818;SDS011;64453;51.944;9.796;2023-12-20T08:16:38;6.80;;;3.10;;
75818;SDS011;64453;51.944;9.796;2023-12-20T08:19:05;8.90;;;3.17;;
75818;SDS011;64453;51.944;9.796;2023-12-20T08:21:32;7.23;;;3.47;;
75818;SDS011;64453;51.944;9.796;2023-12-20T08:24:01;7.93;;;3.03;;
75818;SDS011;64453;51.944;9.796;2023-12-20T08:26:28;7.30;;;3.33;;
75818;SDS011;64453;51.944;9.796;2023-12-20T08:28:54;9.63;;;3.83;;
75818;SDS011;64453;51.944;9.796;2023-12-20T08:31:21;8.97;;;3.60;;
75818;SDS011;64453;51.944;9.796;2023-12-20T08:33:48;8.03;;;3.40;;
75818;SDS011;64453;51.944;9.796;2023-12-20T08:36:15;6.80;;;3.70;;
75818;SDS011;64453;51.944;9.796;2023-12-20T08:38:43;10.70;;;4.53;;
75818;SDS011;64453;51.944;9.796;2023-12-20T08:41:12;10.10;;;4.07;;
75818;SDS011;64453;51.944;9.796;2023-12-20T08:43:39;9.50;;;3.97;;
75818;SDS011;64453;51.944;9.796;2023-12-20T08:46:06;8.73;;;3.30;;
75818;SDS011;64453;51.944;9.796;2023-12-20T08:48:36;12.00;;;4.57;;
75818;SDS011;64453;51.944;9.796;2023-12-20T08:51:03;7.07;;;4.10;;
75818;SDS011;64453;51.944;9.796;2023-12-20T08:53:32;7.00;;;4.53;;
75818;SDS011;64453;51.944;9.796;2023-12-20T08:55:59;9.23;;;4.40;;
75818;SDS011;64453;51.944;9.796;2023-12-20T08:58:28;9.43;;;4.50;;
75818;SDS011;64453;51.944;9.796;2023-12-20T09:00:55;7.53;;;4.50;;
75818;SDS011;64453;51.944;9.796;2023-12-20T09:03:22;14.53;;;4.50;;
75818;SDS011;64453;51.944;9.796;2023-12-20T09:05:49;8.60;;;4.63;;
75818;SDS011;64453;51.944;9.796;2023-12-20T09:08:16;10.60;;;5.30;;
75818;SDS011;64453;51.944;9.796;2023-12-20T09:10:43;6.70;;;4.10;;
75818;SDS011;64453;51.944;9.796;2023-12-20T09:13:10;10.83;;;5.00;;
75818;SDS011;64453;51.944;9.796;2023-12-20T09:15:40;9.10;;;4.73;;
75818;SDS011;64453;51.944;9.796;2023-12-20T09:18:07;8.27;;;4.87;;
75818;SDS011;64453;51.944;9.796;2023-12-20T09:20:34;10.40;;;4.43;;
75818;SDS011;64453;51.944;9.796;2023-12-20T09:23:01;7.50;;;4.30;;
75818;SDS011;64453;51.944;9.796;2023-12-20T09:25:29;9.57;;;4.80;;
75818;SDS011;64453;51.944;9.796;2023-12-20T09:27:55;9.17;;;4.80;;
75818;SDS011;64453;51.944;9.796;2023-12-20T09:30:22;14.97;;;5.07;;
75818;SDS011;64453;51.944;9.796;2023-12-20T09:32:51;9.80;;;4.43;;
75818;SDS011;64453;51.944;9.796;2023-12-20T09:35:18;11.37;;;4.13;;
75818;SDS011;64453;51.944;9.796;2023-12-20T09:37:45;10.17;;;4.13;;
75818;SDS011;64453;51.944;9.796;2023-12-20T09:40:12;7.40;;;4.00;;
75818;SDS011;64453;51.944;9.796;2023-12-20T09:42:42;8.37;;;4.30;;
75818;SDS011;64453;51.944;9.796;2023-12-20T09:45:15;6.17;;;4.10;;
75818;SDS011;64453;51.944;9.796;2023-12-20T09:47:46;9.13;;;4.17;;
75818;SDS011;64453;51.944;9.796;2023-12-20T09:50:16;6.77;;;3.67;;
75818;SDS011;64453;51.944;9.796;2023-12-20T09:52:46;12.60;;;4.30;;
75818;SDS011;64453;51.944;9.796;2023-12-20T09:55:17;9.33;;;3.90;;
75818;SDS011;64453;51.944;9.796;2023-12-20T09:57:45;7.33;;;4.03;;
75818;SDS011;64453;51.944;9.796;2023-12-20T10:00:13;9.00;;;4.10;;
75818;SDS011;64453;51.944;9.796;2023-12-20T10:02:42;8.20;;;4.53;;
75818;SDS011;64453;51.944;9.796;2023-12-20T10:05:18;7.13;;;4.10;;
75818;SDS011;64453;51.944;9.796;2023-12-20T10:07:53;7.80;;;4.10;;
75818;SDS011;64453;51.944;9.796;2023-12-20T10:10:20;9.97;;;4.20;;
75818;SDS011;64453;51.944;9.796;2023-12-20T10:13:01;4.60;;;3.53;;
75818;SDS011;64453;51.944;9.796;2023-12-20T10:15:29;7.53;;;4.00;;
75818;SDS011;64453;51.944;9.796;2023-12-20T10:17:57;5.30;;;3.83;;
75818;SDS011;64453;51.944;9.796;2023-12-20T10:20:25;4.57;;;3.70;;
75818;SDS011;64453;51.944;9.796;2023-12-20T10:22:54;7.10;;;3.83;;
75818;SDS011;64453;51.944;9.796;2023-12-20T10:25:21;11.20;;;4.30;;
75818;SDS011;64453;51.944;9.796;2023-12-20T10:27:49;6.17;;;3.97;;
75818;SDS011;64453;51.944;9.796;2023-12-20T10:30:16;8.17;;;4.30;;
75818;SDS011;64453;51.944;9.796;2023-12-20T10:32:43;7.33;;;4.03;;
75818;SDS011;64453;51.944;9.796;2023-12-20T10:35:10;7.23;;;3.97;;
75818;SDS011;64453;51.944;9.796;2023-12-20T10:37:39;9.13;;;3.90;;
75818;SDS011;64453;51.944;9.796;2023-12-20T10:40:07;8.70;;;4.30;;
75818;SDS011;64453;51.944;9.796;2023-12-20T10:42:35;6.37;;;4.77;;
75818;SDS011;64453;51.944;9.796;2023-12-20T10:45:03;8.23;;;4.00;;
75818;SDS011;64453;51.944;9.796;2023-12-20T10:47:31;6.57;;;4.17;;
75818;SDS011;64453;51.944;9.796;2023-12-20T10:49:59;6.97;;;4.00;;
75818;SDS011;64453;51.944;9.796;2023-12-20T10:52:26;8.90;;;4.07;;
75818;SDS011;64453;51.944;9.796;2023-12-20T10:54:56;5.73;;;3.50;;
75818;SDS011;64453;51.944;9.796;2023-12-20T10:57:25;8.60;;;3.43;;
75818;SDS011;64453;51.944;9.796;2023-12-20T10:59:54;10.03;;;3.73;;
75818;SDS011;64453;51.944;9.796;2023-12-20T11:02:29;8.03;;;3.90;;
75818;SDS011;64453;51.944;9.796;2023-12-20T11:04:59;6.70;;;3.30;;
75818;SDS011;64453;51.944;9.796;2023-12-20T11:07:35;5.80;;;4.07;;
75818;SDS011;64453;51.944;9.796;2023-12-20T11:10:13;6.03;;;3.33;;
75818;SDS011;64453;51.944;9.796;2023-12-20T11:12:46;5.20;;;3.53;;
75818;SDS011;64453;51.944;9.796;2023-12-20T11:15:18;12.53;;;4.70;;
75818;SDS011;64453;51.944;9.796;2023-12-20T11:17:54;8.90;;;5.90;;
75818;SDS011;64453;51.944;9.796;2023-12-20T11:20:23;6.97;;;4.10;;
75818;SDS011;64453;51.944;9.796;2023-12-20T11:22:53;7.30;;;4.40;;
75818;SDS011;64453;51.944;9.796;2023-12-20T11:25:22;6.70;;;3.70;;
75818;SDS011;64453;51.944;9.796;2023-12-20T11:30:41;7.60;;;4.23;;
75818;SDS011;64453;51.944;9.796;2023-12-20T11:33:09;6.40;;;4.57;;
75818;SDS011;64453;51.944;9.796;2023-12-20T11:35:36;10.50;;;4.23;;
75818;SDS011;64453;51.944;9.796;2023-12-20T11:38:04;5.37;;;3.80;;
75818;SDS011;64453;51.944;9.796;2023-12-20T11:40:36;5.73;;;3.80;;
75818;SDS011;64453;51.944;9.796;2023-12-20T11:43:03;5.07;;;3.80;;
75818;SDS011;64453;51.944;9.796;2023-12-20T11:45:31;12.40;;;5.43;;
75818;SDS011;64453;51.944;9.796;2023-12-20T11:48:00;7.13;;;3.90;;
75818;SDS011;64453;51.944;9.796;2023-12-20T11:50:28;6.17;;;4.80;;
75818;SDS011;64453;51.944;9.796;2023-12-20T11:52:56;9.50;;;4.60;;
75818;SDS011;64453;51.944;9.796;2023-12-20T11:55:23;6.93;;;5.00;;
75818;SDS011;64453;51.944;9.796;2023-12-20T11:57:52;6.30;;;4.20;;
75818;SDS011;64453;51.944;9.796;2023-12-20T12:00:19;5.33;;;4.10;;
75818;SDS011;64453;51.944;9.796;2023-12-20T12:02:56;6.93;;;4.47;;
75818;SDS011;64453;51.944;9.796;2023-12-20T12:05:24;8.73;;;4.47;;
75818;SDS011;64453;51.944;9.796;2023-12-20T12:07:53;4.60;;;3.30;;
75818;SDS011;64453;51.944;9.796;2023-12-20T12:10:20;4.50;;;3.93;;
75818;SDS011;64453;51.944;9.796;2023-12-20T12:12:46;5.90;;;3.10;;
75818;SDS011;64453;51.944;9.796;2023-12-20T12:15:15;5.33;;;2.93;;
75818;SDS011;64453;51.944;9.796;2023-12-20T12:17:43;3.47;;;3.17;;
75818;SDS011;64453;51.944;9.796;2023-12-20T12:20:09;4.13;;;3.07;;
75818;SDS011;64453;51.944;9.796;2023-12-20T12:22:37;5.40;;;3.47;;
75818;SDS011;64453;51.944;9.796;2023-12-20T12:25:11;3.77;;;3.10;;
75818;SDS011;64453;51.944;9.796;2023-12-20T12:27:39;7.10;;;4.10;;
75818;SDS011;64453;51.944;9.796;2023-12-20T12:30:08;4.87;;;3.27;;
75818;SDS011;64453;51.944;9.796;2023-12-20T12:32:39;6.80;;;3.97;;
75818;SDS011;64453;51.944;9.796;2023-12-20T12:35:07;5.33;;;2.97;;
75818;SDS011;64453;51.944;9.796;2023-12-20T12:37:35;6.23;;;2.97;;
75818;SDS011;64453;51.944;9.796;2023-12-20T12:40:05;4.20;;;3.20;;
75818;SDS011;64453;51.944;9.796;2023-12-20T12:42:33;4.83;;;2.70;;
75818;SDS011;64453;51.944;9.796;2023-12-20T12:45:00;5.70;;;4.07;;
75818;SDS011;64453;51.944;9.796;2023-12-20T12:47:26;4.00;;;2.77;;
75818;SDS011;64453;51.944;9.796;2023-12-20T12:49:55;6.73;;;3.53;;
75818;SDS011;64453;51.944;9.796;2023-12-20T12:52:23;4.77;;;3.10;;
75818;SDS011;64453;51.944;9.796;2023-12-20T12:54:51;4.33;;;3.20;;
75818;SDS011;64453;51.944;9.796;2023-12-20T12:57:19;8.33;;;3.10;;
75818;SDS011;64453;51.944;9.796;2023-12-20T12:59:46;5.47;;;2.67;;
75818;SDS011;64453;51.944;9.796;2023-12-20T13:02:12;6.17;;;3.50;;
75818;SDS011;64453;51.944;9.796;2023-12-20T13:04:41;7.40;;;4.10;;
75818;SDS011;64453;51.944;9.796;2023-12-20T13:07:11;6.60;;;3.17;;
75818;SDS011;64453;51.944;9.796;2023-12-20T13:09:38;5.73;;;3.30;;
75818;SDS011;64453;51.944;9.796;2023-12-20T13:12:06;7.70;;;3.27;;
75818;SDS011;64453;51.944;9.796;2023-12-20T13:14:34;7.60;;;3.93;;
75818;SDS011;64453;51.944;9.796;2023-12-20T13:17:03;5.60;;;2.87;;
75818;SDS011;64453;51.944;9.796;2023-12-20T13:19:31;5.50;;;2.53;;
75818;SDS011;64453;51.944;9.796;2023-12-20T13:21:58;5.47;;;2.23;;
75818;SDS011;64453;51.944;9.796;2023-12-20T13:24:27;7.10;;;2.47;;
75818;SDS011;64453;51.944;9.796;2023-12-20T13:26:55;6.97;;;3.70;;
75818;SDS011;64453;51.944;9.796;2023-12-20T13:29:22;7.30;;;2.60;;
75818;SDS011;64453;51.944;9.796;2023-12-20T13:31:52;6.60;;;4.80;;
75818;SDS011;64453;51.944;9.796;2023-12-20T13:34:19;7.27;;;3.60;;
75818;SDS011;64453;51.944;9.796;2023-12-20T13:36:46;4.80;;;2.37;;
75818;SDS011;64453;51.944;9.796;2023-12-20T13:39:15;4.20;;;2.13;;
75818;SDS011;64453;51.944;9.796;2023-12-20T13:41:44;5.97;;;2.27;;
75818;SDS011;64453;51.944;9.796;2023-12-20T13:44:12;2.70;;;1.80;;
75818;SDS011;64453;51.944;9.796;2023-12-20T13:46:39;5.57;;;1.73;;
75818;SDS011;64453;51.944;9.796;2023-12-20T13:49:07;5.57;;;4.43;;
75818;SDS011;64453;51.944;9.796;2023-12-20T13:51:34;1.43;;;1.30;;
75818;SDS011;64453;51.944;9.796;2023-12-20T13:54:01;2.40;;;0.93;;
75818;SDS011;64453;51.944;9.796;2023-12-20T13:56:28;2.40;;;1.50;;
75818;SDS011;64453;51.944;9.796;2023-12-20T13:58:56;5.27;;;2.63;;
75818;SDS011;64453;51.944;9.796;2023-12-20T14:01:23;2.60;;;1.30;;
75818;SDS011;64453;51.944;9.796;2023-12-20T14:03:51;3.20;;;2.57;;
75818;SDS011;64453;51.944;9.796;2023-12-20T14:06:18;15.67;;;10.20;;
75818;SDS011;64453;51.944;9.796;2023-12-20T14:08:45;13.37;;;9.57;;
75818;SDS011;64453;51.944;9.796;2023-12-20T14:11:13;5.90;;;4.67;;
75818;SDS011;64453;51.944;9.796;2023-12-20T14:13:40;7.17;;;5.10;;
75818;SDS011;64453;51.944;9.796;2023-12-20T14:16:09;5.43;;;2.57;;
75818;SDS011;64453;51.944;9.796;2023-12-20T14:18:37;4.33;;;2.00;;
75818;SDS011;64453;51.944;9.796;2023-12-20T14:21:05;1.63;;;1.07;;
75818;SDS011;64453;51.944;9.796;2023-12-20T14:23:32;1.70;;;1.60;;
75818;SDS011;64453;51.944;9.796;2023-12-20T14:25:59;1.50;;;1.17;;
75818;SDS011;64453;51.944;9.796;2023-12-20T14:28:27;3.07;;;0.93;;
75818;SDS011;64453;51.944;9.796;2023-12-20T14:30:54;3.50;;;0.90;;
75818;SDS011;64453;51.944;9.796;2023-12-20T14:33:23;3.03;;;1.07;;
75818;SDS011;64453;51.944;9.796;2023-12-20T14:35:51;4.73;;;1.13;;
75818;SDS011;64453;51.944;9.796;2023-12-20T14:38:19;2.13;;;1.10;;
75818;SDS011;64453;51.944;9.796;2023-12-20T14:40:46;1.00;;;0.73;;
75818;SDS011;64453;51.944;9.796;2023-12-20T14:43:13;2.53;;;1.10;;
75818;SDS011;64453;51.944;9.796;2023-12-20T14:45:42;4.03;;;1.27;;
75818;SDS011;64453;51.944;9.796;2023-12-20T14:48:09;5.03;;;1.00;;
75818;SDS011;64453;51.944;9.796;2023-12-20T14:50:38;2.63;;;0.90;;
75818;SDS011;64453;51.944;9.796;2023-12-20T14:53:05;1.47;;;0.67;;